createdAt,value
2023-03-24T00:00:15.957Z,10.98
2023-03-24T00:02:45.434Z,10.96
2023-03-24T00:05:14.622Z,10.97
2023-03-24T00:07:42.429Z,10.93
2023-03-24T00:10:14.888Z,10.92
2023-03-24T00:12:42.992Z,10.87
2023-03-24T00:15:13.908Z,10.84
2023-03-24T00:17:41.420Z,10.80
2023-03-24T00:20:15.499Z,10.75
2023-03-24T00:22:48.405Z,10.66
2023-03-24T00:25:18.817Z,10.58
2023-03-24T00:27:48.755Z,10.59
2023-03-24T00:30:17.472Z,10.56
2023-03-24T00:32:46.242Z,10.57
2023-03-24T00:35:16.490Z,10.57
2023-03-24T00:37:44.757Z,10.63
2023-03-24T00:40:14.600Z,10.63
2023-03-24T00:42:45.869Z,10.59
2023-03-24T00:45:14.737Z,10.61
2023-03-24T00:47:44.865Z,10.58
2023-03-24T00:50:15.098Z,10.59
2023-03-24T00:52:44.168Z,10.59
2023-03-24T00:55:15.965Z,10.60
2023-03-24T00:57:50.153Z,10.61
2023-03-24T01:00:20.643Z,10.55
2023-03-24T01:02:49.031Z,10.51
2023-03-24T01:05:17.791Z,10.50
2023-03-24T01:07:46.055Z,10.47
2023-03-24T01:10:14.809Z,10.49
2023-03-24T01:12:42.946Z,10.48
2023-03-24T01:15:16.286Z,10.54
2023-03-24T01:17:44.212Z,10.54
2023-03-24T01:20:12.438Z,10.54
2023-03-24T01:22:41.376Z,10.58
2023-03-24T01:25:10.167Z,10.63
2023-03-24T01:27:38.840Z,10.68
2023-03-24T01:30:07.962Z,10.70
2023-03-24T01:32:37.380Z,10.75
2023-03-24T01:35:05.481Z,10.73
2023-03-24T01:37:33.003Z,10.79
2023-03-24T01:40:00.809Z,10.82
2023-03-24T01:42:29.136Z,10.78
2023-03-24T01:45:00.830Z,10.75
2023-03-24T01:47:28.384Z,10.72
2023-03-24T01:50:00.452Z,10.69
2023-03-24T01:52:30.545Z,10.75
2023-03-24T01:55:00.113Z,10.74
2023-03-24T01:57:30.584Z,10.70
2023-03-24T02:00:00.044Z,10.65
2023-03-24T02:02:28.033Z,10.67
2023-03-24T02:05:01.104Z,10.61
2023-03-24T02:07:33.986Z,10.56
2023-03-24T02:10:02.986Z,10.51
2023-03-24T02:12:31.297Z,10.52
2023-03-24T02:14:59.045Z,10.57
2023-03-24T02:17:57.305Z,10.49
2023-03-24T02:20:52.970Z,10.42
2023-03-24T02:23:42.264Z,10.36
2023-03-24T02:26:40.877Z,10.31
2023-03-24T02:29:36.441Z,10.27
2023-03-24T02:32:14.344Z,10.23
2023-03-24T02:34:57.185Z,10.21
2023-03-24T02:37:56.101Z,10.20
2023-03-24T02:40:40.352Z,10.19
2023-03-24T02:43:17.975Z,10.21
2023-03-24T02:45:54.737Z,10.17
2023-03-24T02:48:25.558Z,10.11
2023-03-24T02:50:57.402Z,10.15
2023-03-24T02:53:29.240Z,10.08
2023-03-24T02:56:01.816Z,10.01
2023-03-24T02:58:33.017Z,9.91
2023-03-24T03:01:03.607Z,9.83
2023-03-24T03:03:34.497Z,9.79
2023-03-24T03:06:04.471Z,9.72
2023-03-24T03:08:34.008Z,9.73
2023-03-24T03:11:05.019Z,9.68
2023-03-24T03:13:35.638Z,9.66
2023-03-24T03:16:08.746Z,9.63
2023-03-24T03:18:41.431Z,9.60
2023-03-24T03:21:11.999Z,9.56
2023-03-24T03:23:42.522Z,9.51
2023-03-24T03:26:13.592Z,9.48
2023-03-24T03:28:50.029Z,9.46
2023-03-24T03:31:21.656Z,9.47
2023-03-24T03:33:53.564Z,9.43
2023-03-24T03:36:24.428Z,9.37
2023-03-24T03:38:56.953Z,9.37
2023-03-24T03:41:26.028Z,9.34
2023-03-24T03:43:53.930Z,9.38
2023-03-24T03:46:21.562Z,9.39
2023-03-24T03:48:49.262Z,9.34
2023-03-24T03:51:18.362Z,9.32
2023-03-24T03:53:49.988Z,9.31
2023-03-24T03:56:20.703Z,9.29
2023-03-24T03:58:50.210Z,9.21
2023-03-24T04:01:20.042Z,9.18
2023-03-24T04:03:58.032Z,9.15
2023-03-24T04:06:33.307Z,9.10
2023-03-24T04:09:05.209Z,9.14
2023-03-24T04:11:37.781Z,9.19
2023-03-24T04:14:20.013Z,9.21
2023-03-24T04:16:57.416Z,9.34
2023-03-24T04:19:38.127Z,9.36
2023-03-24T04:22:14.064Z,9.37
2023-03-24T04:24:49.958Z,9.45
2023-03-24T04:27:27.188Z,9.45
2023-03-24T04:30:02.829Z,9.43
2023-03-24T04:32:33.852Z,9.44
2023-03-24T04:35:05.362Z,9.48
2023-03-24T04:37:37.842Z,9.54
2023-03-24T04:40:08.546Z,9.57
2023-03-24T04:42:37.904Z,9.64
2023-03-24T04:45:08.634Z,9.66
2023-03-24T04:47:43.293Z,9.66
2023-03-24T04:50:12.348Z,9.65
2023-03-24T04:52:39.956Z,9.69
2023-03-24T04:55:25.821Z,9.75
2023-03-24T04:57:53.524Z,9.77
2023-03-24T05:00:22.491Z,9.79
2023-03-24T05:02:52.217Z,9.79
2023-03-24T05:05:20.305Z,9.82
2023-03-24T05:07:48.138Z,9.79
2023-03-24T05:10:16.181Z,9.76
2023-03-24T05:12:43.952Z,9.75
2023-03-24T05:15:12.469Z,9.71
2023-03-24T05:17:41.412Z,9.68
2023-03-24T05:20:11.084Z,9.73
2023-03-24T05:22:38.759Z,9.74
2023-03-24T05:25:07.335Z,9.76
2023-03-24T05:27:34.880Z,9.79
2023-03-24T05:30:03.933Z,9.80
2023-03-24T05:32:31.544Z,9.83
2023-03-24T05:35:01.212Z,9.92
2023-03-24T05:37:28.918Z,10.00
2023-03-24T05:39:56.559Z,10.00
2023-03-24T05:42:24.379Z,9.98
2023-03-24T05:44:51.933Z,10.01
2023-03-24T05:47:22.102Z,10.02
2023-03-24T05:49:50.427Z,9.98
2023-03-24T05:52:20.545Z,9.94
2023-03-24T05:54:51.925Z,9.88
2023-03-24T05:57:20.666Z,9.86
2023-03-24T05:59:48.283Z,9.85
2023-03-24T06:02:15.917Z,9.85
2023-03-24T06:04:46.254Z,9.81
2023-03-24T06:07:14.401Z,9.79
2023-03-24T06:09:46.787Z,9.83
2023-03-24T06:12:16.222Z,9.89
2023-03-24T06:14:43.879Z,9.90
2023-03-24T06:17:14.794Z,9.88
2023-03-24T06:19:49.667Z,9.93
2023-03-24T06:22:18.107Z,10.01
2023-03-24T06:24:47.965Z,10.05
2023-03-24T06:27:15.749Z,10.10
2023-03-24T06:29:43.459Z,10.08
2023-03-24T06:32:12.722Z,10.20
2023-03-24T06:34:40.580Z,10.27
2023-03-24T06:37:08.849Z,10.36
2023-03-24T06:39:36.502Z,10.36
2023-03-24T06:42:05.749Z,10.37
2023-03-24T06:44:33.421Z,10.30
2023-03-24T06:47:01.250Z,10.33
2023-03-24T06:49:28.806Z,10.42
2023-03-24T06:51:56.341Z,10.54
2023-03-24T06:54:23.939Z,10.69
2023-03-24T06:56:51.720Z,10.73
2023-03-24T06:59:23.878Z,10.70
2023-03-24T07:01:51.943Z,10.78
2023-03-24T07:04:19.922Z,10.79
2023-03-24T07:07:02.075Z,10.82
2023-03-24T07:09:33.203Z,10.82
2023-03-24T07:12:03.312Z,10.90
2023-03-24T07:14:32.217Z,10.87
2023-03-24T07:17:00.139Z,10.89
2023-03-24T07:19:27.920Z,10.97
2023-03-24T07:21:55.458Z,11.07
2023-03-24T07:24:23.042Z,11.27
2023-03-24T07:26:50.733Z,11.26
2023-03-24T07:29:18.267Z,11.26
2023-03-24T07:31:48.718Z,11.26
2023-03-24T07:34:16.699Z,11.40
2023-03-24T07:36:44.294Z,11.57
2023-03-24T07:39:13.167Z,11.68
2023-03-24T07:41:41.067Z,11.78
2023-03-24T07:44:08.633Z,11.97
2023-03-24T07:46:36.501Z,11.97
2023-03-24T07:49:18.128Z,12.02
2023-03-24T07:51:46.771Z,11.94
2023-03-24T07:54:14.572Z,11.98
2023-03-24T07:56:42.334Z,12.08
2023-03-24T07:59:10.916Z,12.18
2023-03-24T08:01:38.864Z,12.26
2023-03-24T08:04:07.889Z,12.28
2023-03-24T08:06:35.638Z,12.29
2023-03-24T08:09:03.625Z,12.28
2023-03-24T08:11:31.249Z,12.26
2023-03-24T08:13:58.834Z,12.08
2023-03-24T08:16:26.487Z,11.97
2023-03-24T08:18:54.090Z,11.88
2023-03-24T08:21:22.989Z,11.86
2023-03-24T08:23:50.605Z,11.86
2023-03-24T08:26:18.173Z,11.89
2023-03-24T08:28:45.697Z,11.86
2023-03-24T08:31:13.724Z,11.86
2023-03-24T08:33:41.652Z,11.80
2023-03-24T08:36:09.583Z,11.78
2023-03-24T08:38:38.980Z,11.70
2023-03-24T08:41:08.442Z,11.71
2023-03-24T08:43:37.411Z,11.67
2023-03-24T08:46:08.703Z,11.67
2023-03-24T08:48:37.964Z,11.58
2023-03-24T08:51:12.055Z,11.55
2023-03-24T08:53:41.349Z,11.60
2023-03-24T08:56:09.302Z,11.69
2023-03-24T08:58:36.830Z,11.73
2023-03-24T09:01:04.530Z,11.76
2023-03-24T09:03:32.138Z,11.70
2023-03-24T09:05:59.871Z,11.60
2023-03-24T09:08:28.644Z,11.63
2023-03-24T09:10:57.511Z,11.68
2023-03-24T09:13:25.118Z,11.61
2023-03-24T09:15:54.830Z,11.61
2023-03-24T09:18:23.068Z,11.52
2023-03-24T09:20:51.189Z,11.58
2023-03-24T09:23:19.176Z,11.67
2023-03-24T09:25:47.275Z,11.62
2023-03-24T09:28:16.445Z,11.62
2023-03-24T09:30:44.297Z,11.71
2023-03-24T09:33:12.080Z,11.86
2023-03-24T09:35:39.940Z,12.05
2023-03-24T09:38:07.688Z,12.10
2023-03-24T09:40:37.833Z,12.00
2023-03-24T09:43:07.944Z,11.83
2023-03-24T09:45:40.341Z,11.63
2023-03-24T09:48:11.900Z,11.49
2023-03-24T09:50:42.484Z,11.38
2023-03-24T09:53:18.244Z,11.30
2023-03-24T09:55:46.331Z,11.39
2023-03-24T09:58:14.417Z,11.52
2023-03-24T10:00:43.742Z,11.66
2023-03-24T10:03:16.224Z,11.80
2023-03-24T10:05:46.526Z,11.80
2023-03-24T10:08:17.164Z,11.77
2023-03-24T10:10:52.924Z,11.73
2023-03-24T10:13:24.018Z,11.74
2023-03-24T10:15:57.561Z,11.72
2023-03-24T10:18:32.388Z,11.67
2023-03-24T10:21:04.159Z,11.71
2023-03-24T10:23:36.503Z,11.66
2023-03-24T10:26:07.658Z,11.66
2023-03-24T10:28:39.878Z,11.70
2023-03-24T10:31:11.739Z,11.73
2023-03-24T10:33:42.362Z,11.79
2023-03-24T10:36:13.759Z,11.82
2023-03-24T10:38:41.532Z,11.85
2023-03-24T10:41:15.811Z,11.85
2023-03-24T10:43:44.593Z,11.70
2023-03-24T10:46:17.201Z,11.58
2023-03-24T10:48:46.599Z,11.58
2023-03-24T10:51:16.368Z,11.48
2023-03-24T10:53:44.648Z,11.59
2023-03-24T10:56:17.186Z,11.84
2023-03-24T10:58:45.396Z,12.19
2023-03-24T11:01:26.163Z,12.34
2023-03-24T11:03:54.385Z,12.40
2023-03-24T11:06:22.511Z,12.42
2023-03-24T11:09:11.559Z,12.49
2023-03-24T11:11:39.218Z,12.72
2023-03-24T11:14:23.422Z,12.88
2023-03-24T11:16:53.254Z,12.93
2023-03-24T11:19:22.799Z,12.82
2023-03-24T11:21:52.919Z,13.09
2023-03-24T11:24:21.754Z,13.43
2023-03-24T11:26:55.395Z,13.59
2023-03-24T11:29:25.754Z,13.67
2023-03-24T11:31:58.413Z,13.94
2023-03-24T11:34:27.212Z,14.14
2023-03-24T11:36:55.937Z,14.41
2023-03-24T11:39:25.694Z,14.56
2023-03-24T11:42:14.017Z,14.46
2023-03-24T11:44:47.228Z,14.52
2023-03-24T11:47:19.479Z,14.08
2023-03-24T11:49:49.688Z,13.73
2023-03-24T11:52:22.650Z,13.56
2023-03-24T11:54:50.464Z,13.31
2023-03-24T11:57:22.740Z,13.18
2023-03-24T11:59:52.906Z,13.12
2023-03-24T12:02:26.577Z,13.10
2023-03-24T12:05:12.288Z,13.02
2023-03-24T12:08:24.838Z,13.31
2023-03-24T12:11:02.085Z,13.56
2023-03-24T12:13:34.920Z,13.97
2023-03-24T12:16:23.007Z,14.39
2023-03-24T12:19:08.046Z,14.61
2023-03-24T12:21:45.285Z,14.71
2023-03-24T12:24:23.916Z,14.59
2023-03-24T12:26:53.248Z,14.73
2023-03-24T12:29:34.053Z,14.92
2023-03-24T12:32:15.557Z,15.02
2023-03-24T12:35:03.996Z,15.47
2023-03-24T12:37:35.357Z,15.79
2023-03-24T12:40:20.483Z,15.63
2023-03-24T12:42:48.126Z,15.65
2023-03-24T12:45:31.542Z,15.71
2023-03-24T12:48:27.185Z,15.71
2023-03-24T12:51:04.819Z,15.43
2023-03-24T12:53:41.731Z,15.26
2023-03-24T12:56:14.156Z,15.25
2023-03-24T12:58:43.991Z,15.02
2023-03-24T13:01:17.296Z,15.07
2023-03-24T13:03:48.635Z,14.94
2023-03-24T13:06:21.934Z,14.89
2023-03-24T13:09:00.688Z,14.89
2023-03-24T13:11:36.234Z,14.85
2023-03-24T13:14:06.346Z,14.86
2023-03-24T13:16:35.549Z,15.13
2023-03-24T13:19:04.790Z,15.17
2023-03-24T13:21:35.286Z,15.56
2023-03-24T13:24:08.935Z,15.99
2023-03-24T13:26:40.365Z,16.11
2023-03-24T13:29:21.756Z,15.94
2023-03-24T13:31:53.919Z,16.17
2023-03-24T13:34:28.709Z,16.63
2023-03-24T13:37:00.759Z,16.31
2023-03-24T13:39:29.845Z,16.09
2023-03-24T13:41:59.139Z,15.90
2023-03-24T13:44:29.681Z,15.88
2023-03-24T13:47:04.424Z,16.08
2023-03-24T13:49:32.596Z,16.19
2023-03-24T13:52:06.340Z,16.16
2023-03-24T13:54:37.372Z,15.83
2023-03-24T13:57:07.445Z,15.43
2023-03-24T13:59:41.232Z,15.11
2023-03-24T14:02:25.652Z,14.93
2023-03-24T14:05:11.898Z,15.28
2023-03-24T14:07:51.487Z,15.81
2023-03-24T14:10:38.332Z,16.15
2023-03-24T14:13:06.968Z,16.29
2023-03-24T14:15:35.468Z,16.33
2023-03-24T14:18:16.377Z,16.34
2023-03-24T14:21:00.529Z,16.36
2023-03-24T14:23:35.702Z,16.39
2023-03-24T14:26:03.245Z,16.49
2023-03-24T14:28:38.518Z,16.52
2023-03-24T14:31:13.246Z,15.94
2023-03-24T14:33:41.888Z,15.67
2023-03-24T14:36:12.154Z,15.43
2023-03-24T14:38:43.573Z,15.30
2023-03-24T14:41:15.956Z,15.02
2023-03-24T14:44:00.187Z,14.70
2023-03-24T14:46:36.505Z,14.43
2023-03-24T14:49:06.572Z,14.29
2023-03-24T14:51:39.790Z,14.37
2023-03-24T14:54:16.438Z,14.56
2023-03-24T14:56:46.993Z,14.84
2023-03-24T14:59:22.829Z,15.22
2023-03-24T15:01:51.268Z,15.26
2023-03-24T15:04:18.876Z,15.56
2023-03-24T15:06:47.973Z,15.77
2023-03-24T15:09:18.817Z,15.63
2023-03-24T15:11:47.925Z,15.61
2023-03-24T15:14:21.756Z,15.60
2023-03-24T15:16:54.740Z,15.48
2023-03-24T15:19:23.428Z,15.45
2023-03-24T15:21:59.011Z,15.28
2023-03-24T15:24:31.884Z,15.31
2023-03-24T15:27:20.360Z,15.34
2023-03-24T15:29:55.147Z,15.41
2023-03-24T15:32:24.398Z,15.47
2023-03-24T15:34:53.552Z,15.51
2023-03-24T15:37:22.617Z,15.41
2023-03-24T15:39:55.391Z,15.23
2023-03-24T15:42:29.634Z,14.94
2023-03-24T15:44:57.648Z,14.74
2023-03-24T15:47:27.088Z,14.72
2023-03-24T15:49:57.015Z,14.65
2023-03-24T15:52:30.932Z,14.59
2023-03-24T15:55:03.613Z,14.53
2023-03-24T15:57:38.832Z,14.48
2023-03-24T16:00:15.989Z,14.21
2023-03-24T16:02:48.365Z,14.09
2023-03-24T16:05:20.616Z,14.03
2023-03-24T16:07:57.067Z,13.89
2023-03-24T16:10:32.123Z,13.73
2023-03-24T16:13:09.522Z,13.48
2023-03-24T16:15:37.163Z,13.46
2023-03-24T16:18:06.476Z,13.29
2023-03-24T16:20:34.087Z,12.65
2023-03-24T16:23:01.748Z,10.95
2023-03-24T16:25:30.878Z,10.54
2023-03-24T16:27:58.445Z,9.95
2023-03-24T16:30:26.755Z,9.78
2023-03-24T16:32:54.643Z,9.55
2023-03-24T16:35:22.348Z,9.49
2023-03-24T16:37:50.554Z,9.45
2023-03-24T16:40:22.284Z,9.44
2023-03-24T16:42:52.277Z,9.44
2023-03-24T16:45:20.149Z,9.49
2023-03-24T16:47:47.792Z,9.44
2023-03-24T16:50:25.561Z,9.45
2023-03-24T16:52:53.085Z,9.39
2023-03-24T16:55:20.679Z,9.35
2023-03-24T16:57:48.291Z,9.29
2023-03-24T17:00:18.288Z,9.07
2023-03-24T17:02:48.542Z,8.98
2023-03-24T17:05:22.622Z,8.89
2023-03-24T17:07:50.425Z,8.85
2023-03-24T17:10:18.634Z,8.73
2023-03-24T17:12:47.303Z,8.66
2023-03-24T17:15:24.504Z,8.69
2023-03-24T17:17:52.653Z,8.64
2023-03-24T17:20:20.673Z,8.61
2023-03-24T17:22:49.840Z,8.62
2023-03-24T17:25:21.137Z,8.57
2023-03-24T17:27:50.121Z,8.51
2023-03-24T17:30:19.895Z,8.52
2023-03-24T17:32:49.175Z,8.51
2023-03-24T17:35:19.195Z,8.45
2023-03-24T17:37:48.036Z,8.42
2023-03-24T17:40:18.150Z,8.41
2023-03-24T17:42:46.838Z,8.38
2023-03-24T17:45:16.361Z,8.42
2023-03-24T17:47:44.200Z,8.47
2023-03-24T17:50:15.286Z,8.42
2023-03-24T17:52:46.025Z,8.42
2023-03-24T17:55:14.820Z,8.48
2023-03-24T17:57:43.012Z,8.41
2023-03-24T18:00:15.068Z,8.53
2023-03-24T18:02:44.303Z,8.48
2023-03-24T18:05:16.056Z,8.71
2023-03-24T18:07:43.820Z,8.72
2023-03-24T18:10:11.695Z,8.78
2023-03-24T18:12:39.249Z,8.69
2023-03-24T18:15:08.298Z,8.72
2023-03-24T18:17:36.317Z,8.59
2023-03-24T18:20:11.247Z,8.67
2023-03-24T18:22:41.201Z,8.86
2023-03-24T18:25:10.044Z,8.89
2023-03-24T18:27:37.932Z,8.66
2023-03-24T18:30:06.807Z,8.54
2023-03-24T18:32:35.873Z,8.46
2023-03-24T18:35:05.025Z,8.44
2023-03-24T18:37:32.668Z,8.38
2023-03-24T18:40:01.573Z,8.32
2023-03-24T18:42:29.150Z,8.26
2023-03-24T18:44:56.669Z,8.26
2023-03-24T18:47:24.612Z,8.29
2023-03-24T18:49:52.195Z,8.27
2023-03-24T18:52:19.761Z,8.22
2023-03-24T18:54:49.055Z,8.24
2023-03-24T18:57:18.232Z,8.21
2023-03-24T18:59:45.758Z,8.20
2023-03-24T19:02:15.208Z,8.19
2023-03-24T19:04:43.230Z,8.15
2023-03-24T19:07:14.536Z,8.14
2023-03-24T19:09:43.169Z,8.13
2023-03-24T19:12:10.956Z,8.04
2023-03-24T19:14:39.822Z,8.03
2023-03-24T19:17:07.484Z,8.05
2023-03-24T19:19:35.053Z,8.05
2023-03-24T19:22:02.820Z,8.09
2023-03-24T19:24:30.480Z,8.11
2023-03-24T19:26:58.109Z,8.13
2023-03-24T19:29:25.789Z,8.12
2023-03-24T19:31:54.752Z,8.10
2023-03-24T19:34:24.238Z,8.11
2023-03-24T19:36:51.982Z,8.15
2023-03-24T19:39:19.879Z,8.18
2023-03-24T19:41:47.601Z,8.15
2023-03-24T19:44:15.483Z,8.14
2023-03-24T19:46:43.219Z,8.11
2023-03-24T19:49:13.460Z,8.00
2023-03-24T19:51:41.283Z,7.93
2023-03-24T19:54:09.423Z,7.89
2023-03-24T19:56:37.321Z,7.88
2023-03-24T19:59:05.137Z,7.88
2023-03-24T20:01:35.634Z,7.90
2023-03-24T20:04:03.883Z,7.79
2023-03-24T20:06:33.069Z,7.75
2023-03-24T20:09:00.977Z,7.71
2023-03-24T20:11:28.596Z,7.61
2023-03-24T20:13:56.258Z,7.49
2023-03-24T20:16:24.694Z,7.44
2023-03-24T20:18:52.617Z,7.34
2023-03-24T20:21:23.046Z,7.26
2023-03-24T20:23:52.850Z,7.14
2023-03-24T20:26:21.970Z,7.10
2023-03-24T20:28:51.171Z,7.04
2023-03-24T20:31:18.850Z,7.00
2023-03-24T20:33:46.528Z,7.01
2023-03-24T20:36:14.125Z,6.99
2023-03-24T20:38:43.094Z,6.98
2023-03-24T20:41:11.979Z,6.94
2023-03-24T20:43:39.994Z,6.90
2023-03-24T20:46:09.615Z,6.85
2023-03-24T20:48:37.566Z,6.85
2023-03-24T20:51:05.828Z,6.74
2023-03-24T20:53:35.035Z,6.68
2023-03-24T20:56:06.999Z,6.59
2023-03-24T20:58:36.557Z,6.54
2023-03-24T21:01:08.016Z,6.54
2023-03-24T21:03:36.233Z,6.53
2023-03-24T21:06:05.125Z,6.52
2023-03-24T21:08:32.668Z,6.57
2023-03-24T21:11:00.785Z,6.58
2023-03-24T21:13:36.977Z,6.59
2023-03-24T21:16:08.531Z,6.59
2023-03-24T21:18:36.704Z,6.60
2023-03-24T21:21:04.723Z,6.62
2023-03-24T21:23:34.199Z,6.69
2023-03-24T21:26:03.403Z,6.74
2023-03-24T21:28:31.469Z,6.83
2023-03-24T21:31:03.491Z,6.86
2023-03-24T21:33:32.574Z,6.89
2023-03-24T21:36:00.355Z,6.94
2023-03-24T21:38:27.907Z,7.00
2023-03-24T21:40:58.492Z,7.00
2023-03-24T21:43:27.041Z,6.97
2023-03-24T21:45:54.819Z,6.91
2023-03-24T21:48:22.744Z,6.86
2023-03-24T21:50:52.351Z,6.78
2023-03-24T21:53:20.972Z,6.74
2023-03-24T21:55:52.499Z,6.61
2023-03-24T21:58:20.418Z,6.56
2023-03-24T22:00:48.866Z,6.46
2023-03-24T22:03:17.254Z,6.44
2023-03-24T22:05:45.466Z,6.40
2023-03-24T22:08:22.805Z,6.35
2023-03-24T22:10:54.306Z,6.33
2023-03-24T22:13:21.848Z,6.47
2023-03-24T22:15:54.833Z,6.53
2023-03-24T22:18:22.621Z,6.49
2023-03-24T22:20:54.762Z,6.51
2023-03-24T22:23:23.863Z,6.51
2023-03-24T22:25:53.037Z,6.51
2023-03-24T22:28:21.391Z,6.48
2023-03-24T22:30:49.142Z,6.44
2023-03-24T22:33:16.984Z,6.42
2023-03-24T22:35:44.580Z,6.40
2023-03-24T22:38:14.864Z,6.41
2023-03-24T22:40:44.140Z,6.42
2023-03-24T22:43:11.763Z,6.35
2023-03-24T22:45:39.311Z,6.33
2023-03-24T22:48:07.475Z,6.28
2023-03-24T22:50:35.325Z,6.30
2023-03-24T22:53:02.887Z,6.29
2023-03-24T22:55:31.821Z,6.25
2023-03-24T22:58:00.892Z,6.19
2023-03-24T23:00:30.433Z,6.10
2023-03-24T23:02:59.023Z,6.05
2023-03-24T23:05:26.882Z,6.08
2023-03-24T23:07:54.570Z,6.07
2023-03-24T23:10:22.358Z,6.10
2023-03-24T23:12:51.871Z,6.06
2023-03-24T23:15:23.124Z,5.99
2023-03-24T23:17:52.148Z,5.98
2023-03-24T23:20:20.946Z,5.92
2023-03-24T23:22:48.737Z,5.88
2023-03-24T23:25:18.882Z,5.82
2023-03-24T23:27:46.988Z,5.72
2023-03-24T23:30:16.084Z,5.70
2023-03-24T23:32:46.769Z,5.65
2023-03-24T23:35:15.048Z,5.63
2023-03-24T23:37:42.625Z,5.60
2023-03-24T23:40:13.203Z,5.54
2023-03-24T23:42:42.624Z,5.53
2023-03-24T23:45:14.780Z,5.54
2023-03-24T23:47:43.417Z,5.53
2023-03-24T23:50:13.166Z,5.53
2023-03-24T23:52:41.770Z,5.56
2023-03-24T23:55:11.355Z,5.49
2023-03-24T23:57:40.269Z,5.47
